createdAt,value
2019-02-24T00:01:21.117Z,47.30
2019-02-24T00:03:49.961Z,46.90
2019-02-24T00:06:19.556Z,47.40
2019-02-24T00:08:48.426Z,49.10
2019-02-24T00:11:17.264Z,48.00
2019-02-24T00:13:46.115Z,48.90
2019-02-24T00:16:14.962Z,49.60
2019-02-24T00:18:43.815Z,48.00
2019-02-24T00:21:12.676Z,47.70
2019-02-24T00:23:41.532Z,48.70
2019-02-24T00:26:10.374Z,49.40
2019-02-24T00:28:39.236Z,50.10
2019-02-24T00:31:08.082Z,51.00
2019-02-24T00:33:36.943Z,51.30
2019-02-24T00:36:05.807Z,51.70
2019-02-24T00:38:34.664Z,51.80
2019-02-24T00:41:03.521Z,52.20
2019-02-24T00:43:33.108Z,52.70
2019-02-24T00:46:02.698Z,53.50
2019-02-24T00:48:31.537Z,52.30
2019-02-24T00:51:00.417Z,53.30
2019-02-24T00:53:29.240Z,52.40
2019-02-24T00:55:58.083Z,52.20
2019-02-24T00:58:27.693Z,53.40
2019-02-24T01:00:56.549Z,53.70
2019-02-24T01:03:25.435Z,54.30
2019-02-24T01:05:54.275Z,54.60
2019-02-24T01:08:23.150Z,54.70
2019-02-24T01:10:52.004Z,54.90
2019-02-24T01:13:20.876Z,55.00
2019-02-24T01:15:49.739Z,56.10
2019-02-24T01:18:18.592Z,56.90
2019-02-24T01:20:47.447Z,57.00
2019-02-24T01:23:16.316Z,58.70
2019-02-24T01:25:45.217Z,59.70
2019-02-24T01:28:14.060Z,60.90
2019-02-24T01:30:42.925Z,64.00
2019-02-24T01:33:11.766Z,65.00
2019-02-24T01:35:40.618Z,67.70
2019-02-24T01:38:09.482Z,69.30
2019-02-24T01:40:38.325Z,72.10
2019-02-24T01:43:07.248Z,72.90
2019-02-24T01:45:36.032Z,77.80
2019-02-24T01:48:04.883Z,75.40
2019-02-24T01:50:34.486Z,78.80
2019-02-24T01:53:04.092Z,75.70
2019-02-24T01:55:33.704Z,77.60
2019-02-24T01:58:02.566Z,80.70
2019-02-24T02:00:31.403Z,82.20
2019-02-24T02:03:00.276Z,89.30
2019-02-24T02:05:29.143Z,92.90
2019-02-24T02:07:58.000Z,95.50
2019-02-24T02:10:26.854Z,99.70
2019-02-24T02:12:57.369Z,99.90
2019-02-24T02:15:24.547Z,99.90
2019-02-24T02:17:53.398Z,99.90
2019-02-24T02:20:22.269Z,99.90
2019-02-24T02:22:51.124Z,99.90
2019-02-24T02:25:19.976Z,99.90
2019-02-24T02:27:49.570Z,99.90
2019-02-24T02:30:18.462Z,99.90
2019-02-24T02:32:47.442Z,99.90
2019-02-24T02:35:16.301Z,99.90
2019-02-24T02:37:45.167Z,99.90
2019-02-24T02:40:14.025Z,99.90
2019-02-24T02:42:42.882Z,99.90
2019-02-24T02:45:11.733Z,99.90
2019-02-24T02:47:40.579Z,99.90
2019-02-24T02:50:09.436Z,99.90
2019-02-24T02:52:38.301Z,99.90
2019-02-24T02:55:07.143Z,99.90
2019-02-24T02:57:36.004Z,99.90
2019-02-24T03:00:05.820Z,99.90
2019-02-24T03:02:34.650Z,99.90
2019-02-24T03:05:03.511Z,99.90
2019-02-24T03:07:32.437Z,99.90
2019-02-24T03:10:02.866Z,99.90
2019-02-24T03:12:30.143Z,99.90
2019-02-24T03:14:58.992Z,99.90
2019-02-24T03:17:28.603Z,99.90
2019-02-24T03:19:57.500Z,99.90
2019-02-24T03:22:27.126Z,99.90
2019-02-24T03:24:55.995Z,99.90
2019-02-24T03:27:24.869Z,99.90
2019-02-24T03:29:53.729Z,99.90
2019-02-24T03:32:22.633Z,99.90
2019-02-24T03:34:51.497Z,99.90
2019-02-24T03:37:20.366Z,99.90
2019-02-24T03:39:49.269Z,99.90
2019-02-24T03:42:18.112Z,99.90
2019-02-24T03:44:47.007Z,99.90
2019-02-24T03:47:15.879Z,99.90
2019-02-24T03:49:44.805Z,99.90
2019-02-24T03:52:14.445Z,99.90
2019-02-24T03:54:43.322Z,99.90
2019-02-24T03:57:12.166Z,99.90
2019-02-24T03:59:41.079Z,99.90
2019-02-24T04:02:09.919Z,99.90
2019-02-24T04:04:38.853Z,99.90
2019-02-24T04:07:07.709Z,99.90
2019-02-24T04:09:36.596Z,99.90
2019-02-24T04:12:05.565Z,99.90
2019-02-24T04:14:34.422Z,99.90
2019-02-24T04:17:04.023Z,99.90
2019-02-24T04:19:32.893Z,99.90
2019-02-24T04:22:01.783Z,99.90
2019-02-24T04:24:30.682Z,99.90
2019-02-24T04:26:59.543Z,99.90
2019-02-24T04:29:28.416Z,99.90
2019-02-24T04:31:57.271Z,99.90
2019-02-24T04:34:26.922Z,99.90
2019-02-24T04:36:55.754Z,99.90
2019-02-24T04:39:25.363Z,99.90
2019-02-24T04:41:54.216Z,99.90
2019-02-24T04:44:23.053Z,99.90
2019-02-24T04:46:51.916Z,99.90
2019-02-24T04:49:20.751Z,99.90
2019-02-24T04:51:49.643Z,99.90
2019-02-24T04:54:18.545Z,99.90
2019-02-24T04:56:48.095Z,99.90
2019-02-24T04:59:17.699Z,99.90
2019-02-24T05:01:46.547Z,99.90
2019-02-24T05:04:15.399Z,99.90
2019-02-24T05:06:45.074Z,99.90
2019-02-24T05:09:13.921Z,99.90
2019-02-24T05:11:42.771Z,99.90
2019-02-24T05:14:11.637Z,99.90
2019-02-24T05:16:40.530Z,99.90
2019-02-24T05:19:09.493Z,99.90
2019-02-24T05:21:38.281Z,99.90
2019-02-24T05:24:07.142Z,99.90
2019-02-24T05:26:36.725Z,99.90
2019-02-24T05:29:05.615Z,99.90
2019-02-24T05:31:35.229Z,99.90
2019-02-24T05:34:04.831Z,99.90
2019-02-24T05:36:34.434Z,99.90
2019-02-24T05:39:03.289Z,99.90
2019-02-24T05:41:32.166Z,99.90
2019-02-24T05:44:01.018Z,99.90
2019-02-24T05:46:29.885Z,99.90
2019-02-24T05:48:58.756Z,99.90
2019-02-24T05:51:27.629Z,99.90
2019-02-24T05:53:56.481Z,99.90
2019-02-24T05:56:25.367Z,99.90
2019-02-24T05:58:54.191Z,99.90
2019-02-24T06:01:23.053Z,99.90
2019-02-24T06:03:51.945Z,99.90
2019-02-24T06:06:21.628Z,99.90
2019-02-24T06:08:50.528Z,99.90
2019-02-24T06:11:19.356Z,99.90
2019-02-24T06:13:48.265Z,99.90
2019-02-24T06:16:17.135Z,99.90
2019-02-24T06:18:45.992Z,99.90
2019-02-24T06:21:15.632Z,99.90
2019-02-24T06:23:44.545Z,99.90
2019-02-24T06:26:13.434Z,99.90
2019-02-24T06:28:42.365Z,99.90
2019-02-24T06:31:11.241Z,99.90
2019-02-24T06:33:40.095Z,99.90
2019-02-24T06:36:08.972Z,99.90
2019-02-24T06:38:37.951Z,99.90
2019-02-24T06:41:06.813Z,99.90
2019-02-24T06:43:36.414Z,99.90
2019-02-24T06:46:05.329Z,99.90
2019-02-24T06:48:34.158Z,99.90
2019-02-24T06:51:03.079Z,99.90
2019-02-24T06:53:31.925Z,99.90
2019-02-24T06:56:00.817Z,99.90
2019-02-24T06:58:29.667Z,99.90
2019-02-24T07:00:59.293Z,99.90
2019-02-24T07:03:28.157Z,99.90
2019-02-24T07:05:57.778Z,99.90
2019-02-24T07:08:26.619Z,99.90
2019-02-24T07:10:55.522Z,99.90
2019-02-24T07:13:24.379Z,99.90
2019-02-24T07:15:53.250Z,99.90
2019-02-24T07:18:22.135Z,99.90
2019-02-24T07:20:51.052Z,99.90
2019-02-24T07:23:19.907Z,99.90
2019-02-24T07:25:49.521Z,99.90
2019-02-24T07:28:18.534Z,99.90
2019-02-24T07:30:47.401Z,99.90
2019-02-24T07:33:16.951Z,99.90
2019-02-24T07:35:45.844Z,99.90
2019-02-24T07:38:14.677Z,99.90
2019-02-24T07:40:44.321Z,99.90
2019-02-24T07:43:13.175Z,99.90
2019-02-24T07:45:42.031Z,99.90
2019-02-24T07:48:10.892Z,99.90
2019-02-24T07:50:39.766Z,99.90
2019-02-24T07:53:08.669Z,99.90
2019-02-24T07:55:37.494Z,99.90
2019-02-24T07:58:06.373Z,99.90
2019-02-24T08:00:35.251Z,99.90
2019-02-24T08:03:04.123Z,99.90
2019-02-24T08:05:32.993Z,99.90
2019-02-24T08:08:02.555Z,99.90
2019-02-24T08:10:30.711Z,99.90
2019-02-24T08:12:59.600Z,99.90
2019-02-24T08:15:28.475Z,99.90
2019-02-24T08:17:57.379Z,99.90
2019-02-24T08:20:26.209Z,99.90
2019-02-24T08:22:55.097Z,99.90
2019-02-24T08:25:24.783Z,99.90
2019-02-24T08:27:55.555Z,99.90
2019-02-24T08:30:22.689Z,99.90
2019-02-24T08:32:52.293Z,99.90
2019-02-24T08:35:23.819Z,99.90
2019-02-24T08:37:52.697Z,99.90
2019-02-24T08:40:21.588Z,99.90
2019-02-24T08:42:50.422Z,99.90
2019-02-24T08:45:20.017Z,99.90
2019-02-24T08:47:48.889Z,99.90
2019-02-24T08:50:17.847Z,99.90
2019-02-24T08:52:46.710Z,99.90
2019-02-24T08:55:16.624Z,99.90
2019-02-24T08:57:46.289Z,99.90
2019-02-24T09:00:15.197Z,99.90
2019-02-24T09:02:44.113Z,85.00
2019-02-24T09:05:12.984Z,62.40
2019-02-24T09:07:42.604Z,64.00
2019-02-24T09:10:11.443Z,56.90
2019-02-24T09:12:40.292Z,56.70
2019-02-24T09:15:11.084Z,58.00
2019-02-24T09:17:39.939Z,56.70
2019-02-24T09:20:08.793Z,57.60
2019-02-24T09:22:37.775Z,58.70
2019-02-24T09:25:06.594Z,56.10
2019-02-24T09:27:35.463Z,54.20
2019-02-24T09:30:07.923Z,53.40
2019-02-24T09:32:36.845Z,52.40
2019-02-24T09:35:05.706Z,53.10
2019-02-24T09:37:35.412Z,50.60
2019-02-24T09:40:05.186Z,49.90
2019-02-24T09:42:34.040Z,52.00
2019-02-24T09:45:02.911Z,51.20
2019-02-24T09:47:32.589Z,49.40
2019-02-24T09:50:01.421Z,50.80
2019-02-24T09:52:30.319Z,50.00
2019-02-24T09:55:00.003Z,48.30
2019-02-24T09:57:29.622Z,48.40
2019-02-24T09:59:58.486Z,48.60
2019-02-24T10:02:27.310Z,47.50
2019-02-24T10:04:56.182Z,47.70
2019-02-24T10:07:25.798Z,46.20
2019-02-24T10:09:55.413Z,45.50
2019-02-24T10:12:24.329Z,44.20
2019-02-24T10:14:53.192Z,45.70
2019-02-24T10:17:22.073Z,44.10
2019-02-24T10:19:50.957Z,43.40
2019-02-24T10:22:20.753Z,43.50
2019-02-24T10:24:49.442Z,42.30
2019-02-24T10:27:18.315Z,41.80
2019-02-24T10:29:47.217Z,41.70
2019-02-24T10:32:16.105Z,41.80
2019-02-24T10:34:44.967Z,42.20
2019-02-24T10:37:13.864Z,42.20
2019-02-24T10:39:42.672Z,41.00
2019-02-24T10:42:11.594Z,46.40
2019-02-24T10:44:41.202Z,40.30
2019-02-24T10:47:10.115Z,39.50
2019-02-24T10:49:39.687Z,40.60
2019-02-24T10:52:08.541Z,40.70
2019-02-24T10:54:37.422Z,38.50
2019-02-24T10:57:09.775Z,38.00
2019-02-24T10:59:35.149Z,38.80
2019-02-24T11:02:04.752Z,37.20
2019-02-24T11:04:34.547Z,36.60
2019-02-24T11:07:03.431Z,36.10
2019-02-24T11:09:32.393Z,37.30
2019-02-24T11:12:01.974Z,37.10
2019-02-24T11:14:30.833Z,38.00
2019-02-24T11:16:59.719Z,38.30
2019-02-24T11:19:28.581Z,39.80
2019-02-24T11:21:57.471Z,37.80
2019-02-24T11:24:27.015Z,40.70
2019-02-24T11:26:56.625Z,42.50
2019-02-24T11:29:26.218Z,41.90
2019-02-24T11:31:55.083Z,43.90
2019-02-24T11:34:23.937Z,43.10
2019-02-24T11:36:53.205Z,38.80
2019-02-24T11:39:22.865Z,37.80
2019-02-24T11:41:51.690Z,38.50
2019-02-24T11:44:23.572Z,38.50
2019-02-24T11:46:52.428Z,39.80
2019-02-24T11:49:21.551Z,38.50
2019-02-24T11:51:51.469Z,39.40
2019-02-24T11:54:21.180Z,38.80
2019-02-24T11:56:50.033Z,38.50
2019-02-24T11:59:18.961Z,38.50
2019-02-24T12:01:47.978Z,39.90
2019-02-24T12:04:16.687Z,40.20
2019-02-24T12:06:45.546Z,41.30
2019-02-24T12:09:14.413Z,40.00
2019-02-24T12:11:44.077Z,40.30
2019-02-24T12:14:12.901Z,42.00
2019-02-24T12:16:41.776Z,40.00
2019-02-24T12:19:10.673Z,40.60
2019-02-24T12:21:39.496Z,40.90
2019-02-24T12:24:08.371Z,40.60
2019-02-24T12:26:38.049Z,40.30
2019-02-24T12:29:06.895Z,40.20
2019-02-24T12:31:35.745Z,40.60
2019-02-24T12:34:06.345Z,41.60
2019-02-24T12:36:35.248Z,41.00
2019-02-24T12:39:04.095Z,40.60
2019-02-24T12:41:32.967Z,40.30
2019-02-24T12:44:01.859Z,40.50
2019-02-24T12:46:30.679Z,40.10
2019-02-24T12:48:59.584Z,39.60
2019-02-24T12:51:28.505Z,40.20
2019-02-24T12:53:57.421Z,40.70
2019-02-24T12:56:26.251Z,40.40
2019-02-24T12:58:55.487Z,38.60
2019-02-24T13:01:25.093Z,38.30
2019-02-24T13:03:54.731Z,38.50
2019-02-24T13:06:23.601Z,38.10
2019-02-24T13:08:53.212Z,36.80
2019-02-24T13:11:22.813Z,36.70
2019-02-24T13:13:52.413Z,36.40
2019-02-24T13:16:21.269Z,37.00
2019-02-24T13:18:50.213Z,35.90
2019-02-24T13:21:19.071Z,36.00
2019-02-24T13:23:47.962Z,35.90
2019-02-24T13:26:17.564Z,36.00
2019-02-24T13:28:50.502Z,36.00
2019-02-24T13:31:15.291Z,35.40
2019-02-24T13:33:44.188Z,37.40
2019-02-24T13:36:13.051Z,36.30
2019-02-24T13:38:42.705Z,35.50
2019-02-24T13:41:11.576Z,37.80
2019-02-24T13:43:40.455Z,36.90
2019-02-24T13:46:09.322Z,36.20
2019-02-24T13:48:38.197Z,34.60
2019-02-24T13:51:07.187Z,35.60
2019-02-24T13:56:05.545Z,35.80
2019-02-24T13:58:34.428Z,34.60
2019-02-24T14:01:03.310Z,35.00
2019-02-24T14:03:32.281Z,35.00
2019-02-24T14:06:01.140Z,34.80
2019-02-24T14:08:30.767Z,35.10
2019-02-24T14:11:00.572Z,34.40
2019-02-24T14:13:30.233Z,34.40
2019-02-24T14:15:59.671Z,35.10
2019-02-24T14:18:28.174Z,34.40
2019-02-24T14:20:57.092Z,34.70
2019-02-24T14:23:25.943Z,34.80
2019-02-24T14:25:55.527Z,34.50
2019-02-24T14:28:24.417Z,35.20
2019-02-24T14:30:53.253Z,33.90
2019-02-24T14:33:22.117Z,34.40
2019-02-24T14:35:51.733Z,35.30
2019-02-24T14:38:20.618Z,36.40
2019-02-24T14:40:49.455Z,35.70
2019-02-24T14:43:18.422Z,35.50
2019-02-24T14:45:49.609Z,35.50
2019-02-24T14:48:16.199Z,35.60
2019-02-24T14:50:45.060Z,36.60
2019-02-24T14:53:14.660Z,35.50
2019-02-24T14:55:43.545Z,35.10
2019-02-24T14:58:12.404Z,35.10
2019-02-24T15:00:41.255Z,35.30
2019-02-24T15:03:10.131Z,35.50
2019-02-24T15:05:39.784Z,36.40
2019-02-24T15:08:08.621Z,39.20
2019-02-24T15:10:37.503Z,36.40
2019-02-24T15:13:06.326Z,37.00
2019-02-24T15:15:36.080Z,35.50
2019-02-24T15:18:04.982Z,35.30
2019-02-24T15:20:33.805Z,35.50
2019-02-24T15:23:03.402Z,35.50
2019-02-24T15:25:33.009Z,35.10
2019-02-24T15:28:01.901Z,35.10
2019-02-24T15:30:30.752Z,35.50
2019-02-24T15:32:59.571Z,35.60
2019-02-24T15:35:29.179Z,35.40
2019-02-24T15:37:58.017Z,38.50
2019-02-24T15:40:26.879Z,37.40
2019-02-24T15:42:55.730Z,37.50
2019-02-24T15:45:24.573Z,36.40
2019-02-24T15:47:53.449Z,41.50
2019-02-24T15:50:22.293Z,39.40
2019-02-24T15:52:51.139Z,38.00
2019-02-24T15:55:19.992Z,43.30
2019-02-24T15:57:48.838Z,43.60
2019-02-24T16:00:17.696Z,45.40
2019-02-24T16:02:47.287Z,46.30
2019-02-24T16:05:16.154Z,46.30
2019-02-24T16:07:45.026Z,45.70
2019-02-24T16:10:14.810Z,43.70
2019-02-24T16:12:43.660Z,40.10
2019-02-24T16:15:14.218Z,39.20
2019-02-24T16:17:43.065Z,38.30
2019-02-24T16:20:13.879Z,38.30
2019-02-24T16:22:42.749Z,38.00
2019-02-24T16:25:11.609Z,37.80
2019-02-24T16:27:40.483Z,38.70
2019-02-24T16:30:11.240Z,39.50
2019-02-24T16:32:40.090Z,38.90
2019-02-24T16:35:13.554Z,41.10
2019-02-24T16:37:42.390Z,40.30
2019-02-24T16:40:13.462Z,40.70
2019-02-24T16:42:42.577Z,41.10
2019-02-24T16:45:12.002Z,42.20
2019-02-24T16:47:40.914Z,42.40
2019-02-24T16:52:54.248Z,49.30
2019-02-24T16:55:23.130Z,45.50
2019-02-24T16:57:51.988Z,46.90
2019-02-24T17:00:21.898Z,47.90
2019-02-24T17:02:50.760Z,47.80
2019-02-24T17:05:19.617Z,49.70
2019-02-24T17:07:49.308Z,51.80
2019-02-24T17:10:17.312Z,55.60
2019-02-24T17:12:46.915Z,54.10
2019-02-24T17:15:15.774Z,57.20
2019-02-24T17:17:44.633Z,52.40
2019-02-24T17:20:14.260Z,54.10
2019-02-24T17:22:43.110Z,52.40
2019-02-24T17:25:11.956Z,57.10
2019-02-24T17:27:40.798Z,59.20
2019-02-24T17:30:09.646Z,61.60
2019-02-24T17:32:38.489Z,62.80
2019-02-24T17:35:07.343Z,66.40
2019-02-24T17:37:36.946Z,62.20
2019-02-24T17:42:46.971Z,65.90
2019-02-24T17:45:16.019Z,67.10
2019-02-24T17:47:45.645Z,67.60
2019-02-24T17:50:14.497Z,70.60
2019-02-24T17:52:43.346Z,72.00
2019-02-24T17:55:12.210Z,73.30
2019-02-24T17:57:41.060Z,73.50
2019-02-24T18:00:14.071Z,76.70
2019-02-24T18:02:42.942Z,76.20
2019-02-24T18:05:11.807Z,76.10
2019-02-24T18:07:40.683Z,75.60
2019-02-24T18:10:09.521Z,79.00
2019-02-24T18:12:38.401Z,80.20
2019-02-24T18:15:08.464Z,80.20
2019-02-24T18:17:36.898Z,76.80
2019-02-24T18:20:07.208Z,77.20
2019-02-24T18:25:05.533Z,78.70
2019-02-24T18:27:34.425Z,77.00
2019-02-24T18:30:03.255Z,73.50
2019-02-24T18:32:32.304Z,77.30
2019-02-24T18:35:01.694Z,74.40
2019-02-24T18:37:30.578Z,73.70
2019-02-24T18:42:28.866Z,76.20
2019-02-24T18:44:57.818Z,82.20
2019-02-24T18:47:26.687Z,82.60
2019-02-24T18:49:55.585Z,83.10
2019-02-24T18:52:24.434Z,81.90
2019-02-24T18:54:54.082Z,79.90
2019-02-24T18:57:23.009Z,81.40
2019-02-24T18:59:51.934Z,83.30
2019-02-24T19:02:20.757Z,81.80
2019-02-24T19:04:49.640Z,88.60
2019-02-24T19:07:18.523Z,85.00
2019-02-24T19:09:47.372Z,86.70
2019-02-24T19:14:45.709Z,86.80
2019-02-24T19:17:14.618Z,85.00
2019-02-24T19:19:44.182Z,88.30
2019-02-24T19:22:13.040Z,90.00
2019-02-24T19:24:41.906Z,90.60
2019-02-24T19:27:10.761Z,91.20
2019-02-24T19:29:39.660Z,92.00
2019-02-24T19:32:08.521Z,92.70
2019-02-24T19:34:37.399Z,93.60
2019-02-24T19:37:06.297Z,94.00
2019-02-24T19:39:35.150Z,93.00
2019-02-24T19:42:04.050Z,93.50
2019-02-24T19:44:32.876Z,93.50
2019-02-24T19:47:02.474Z,92.50
2019-02-24T19:49:32.078Z,94.40
2019-02-24T19:52:00.928Z,94.40
2019-02-24T19:54:29.831Z,93.30
2019-02-24T19:56:58.659Z,92.40
2019-02-24T19:59:28.325Z,93.70
2019-02-24T20:01:57.214Z,91.10
2019-02-24T20:04:26.051Z,91.70
2019-02-24T20:06:55.646Z,91.20
2019-02-24T20:09:25.249Z,91.00
2019-02-24T20:11:54.127Z,92.60
2019-02-24T20:14:23.016Z,95.70
2019-02-24T20:16:51.886Z,97.20
2019-02-24T20:19:20.744Z,97.60
2019-02-24T20:21:49.627Z,97.80
2019-02-24T20:24:19.234Z,96.30
2019-02-24T20:26:48.098Z,95.90
2019-02-24T20:29:16.970Z,95.60
2019-02-24T20:31:45.851Z,96.80
2019-02-24T20:34:14.708Z,97.20
2019-02-24T20:36:43.554Z,97.60
2019-02-24T20:39:12.457Z,96.10
2019-02-24T20:41:41.328Z,96.50
2019-02-24T20:44:10.208Z,97.20
2019-02-24T20:46:39.123Z,96.60
2019-02-24T20:49:07.995Z,97.40
2019-02-24T20:54:06.332Z,99.90
2019-02-24T20:56:35.930Z,99.90
2019-02-24T20:59:04.802Z,99.90
2019-02-24T21:01:35.149Z,99.90
2019-02-24T21:04:03.924Z,99.90
2019-02-24T21:06:33.526Z,99.90
2019-02-24T21:09:02.394Z,99.90
2019-02-24T21:11:32.278Z,99.90
2019-02-24T21:14:01.059Z,99.90
2019-02-24T21:16:29.918Z,99.90
2019-02-24T21:18:58.789Z,99.90
2019-02-24T21:21:27.634Z,99.90
2019-02-24T21:23:56.526Z,99.90
2019-02-24T21:26:25.791Z,99.90
2019-02-24T21:28:54.678Z,99.90
2019-02-24T21:31:23.594Z,99.90
2019-02-24T21:33:52.446Z,99.90
2019-02-24T21:36:22.062Z,99.90
2019-02-24T21:38:50.949Z,99.90
2019-02-24T21:41:19.826Z,99.90
2019-02-24T21:43:49.450Z,99.90
2019-02-24T21:46:18.296Z,99.90
2019-02-24T21:48:47.174Z,99.90
2019-02-24T21:51:16.040Z,99.90
2019-02-24T21:53:44.892Z,99.90
2019-02-24T21:56:14.515Z,99.90
2019-02-24T21:58:43.416Z,99.90
2019-02-24T22:01:12.296Z,99.90
2019-02-24T22:03:41.181Z,99.90
2019-02-24T22:06:10.099Z,99.90
2019-02-24T22:08:39.672Z,99.90
2019-02-24T22:11:08.553Z,99.90
2019-02-24T22:13:38.174Z,99.90
2019-02-24T22:16:07.050Z,99.90
2019-02-24T22:18:36.670Z,99.90
2019-02-24T22:21:05.544Z,99.90
2019-02-24T22:23:35.127Z,99.90
2019-02-24T22:26:04.807Z,99.90
2019-02-24T22:28:33.666Z,99.90
2019-02-24T22:31:02.519Z,99.90
2019-02-24T22:33:31.426Z,99.90
2019-02-24T22:36:00.283Z,99.90
2019-02-24T22:38:29.155Z,99.90
2019-02-24T22:40:58.012Z,99.90
2019-02-24T22:43:26.926Z,99.90
2019-02-24T22:45:55.772Z,99.90
2019-02-24T22:48:24.657Z,99.90
2019-02-24T22:50:53.508Z,99.90
2019-02-24T22:53:22.439Z,99.90
2019-02-24T22:55:51.291Z,99.90
2019-02-24T22:58:20.163Z,99.90
2019-02-24T23:00:51.419Z,99.90
2019-02-24T23:03:21.212Z,99.90
2019-02-24T23:05:50.070Z,99.90
2019-02-24T23:08:19.673Z,99.90
2019-02-24T23:10:49.289Z,99.90
2019-02-24T23:13:18.218Z,99.90
2019-02-24T23:15:47.054Z,99.90
2019-02-24T23:18:15.932Z,99.90
2019-02-24T23:20:44.823Z,99.90
2019-02-24T23:23:13.699Z,99.90
2019-02-24T23:25:42.587Z,99.90
2019-02-24T23:28:11.431Z,99.90
2019-02-24T23:30:40.281Z,99.90
2019-02-24T23:33:09.186Z,99.90
2019-02-24T23:35:38.059Z,99.90
2019-02-24T23:38:06.913Z,99.90
2019-02-24T23:40:36.481Z,99.90
2019-02-24T23:43:05.392Z,99.90
2019-02-24T23:45:34.238Z,99.90
2019-02-24T23:48:03.131Z,99.90
2019-02-24T23:50:31.936Z,99.90
2019-02-24T23:53:00.797Z,99.90
2019-02-24T23:55:29.635Z,99.90
2019-02-24T23:57:58.488Z,99.90
